Airfield :
LOGIN :

Register | Disclaimer

   EN    FR    IT 

 










Legend :    VFR   Marginal VFR   IFR   Intensive IFR   Very Intensive IFR
Visi :
Ceiling :
>= 8 km
>= 3000ft
5 to 8 km
1000 to 3000 ft
1500m to 5 km
500 to 1000 ft
800 to 1500m
200 to 500 ft
< 800m
< 200 ft
Symbols :   Thunderstorms  Fog  Heavy snow  Heavy precipitations  Wind > 20 kt
SIGMETs :     Misc.  Thunderstorms  Icing  Turbulence  Mountain Waves  Volcanic Ashes






- Airport Elevation : 74 ft
- IATA code : NDZ


ETMN - Cuxhaven Nordholz Sea AB

CURRENT METAR :
  • 140546Z 15006KT 0050 FG FEW001 02/02 Q1003 RED YLO TEMPO RED

EXPIRED METARs :
  • 140538Z 15006KT 0800 FG FEW001 02/02 Q1003 AMB YLO TEMPO RED
  • 140520Z 18005KT 2500 BR FEW010 02/02 Q1003 YLO YLO TEMPO RED
  • 140439Z 16006KT 2500 BR SCT001 SCT035 02/02 Q1002 YLO
  • 140420Z 16006KT 0800 FG VV000 02/02 Q1002 RED
  • 140402Z 16006KT 0600 FG BKN001 02/02 Q1002 RED
  • 140320Z 17006KT 1000 BCFG 02/02 Q1002 AMB
  • 140307Z 16006KT 1200 BCFG FEW060 03/02 Q1002 AMB

TAF TAF ETMN
Valid from the 14 at 06:00 until the 14 at 15:00 UTC


140521Z 1406/1415 16008KT 3000 BR SCT001 SCT030
TEMPO 1406/1408 16005KT 0500 FG BKN001
BECMG 1407/1409 15008KT 8000 NSW FEW015 SCT030



MET'MAP, your aeronautical weather chart ! - Copyright ORBIFLY December 2007 - Disclaimer

ORBIFLY MET'MAP TEAM :

Programming & Development : Alexandra Zaïnal
Concept & Development : Baudouin d'Aumeries
Co-Development & Prog : Marc-Olivier Méhu
Technical & hardware support : Manuel Goepfert

Contact : metmap@orbifly.com




SOURCES & CREDITS :

   NOAA